sensor_id;sensor_type;location;lat;lon;timestamp;pressure;altitude;pressure_sealevel;temperature;humidity
84043;BME280;74129;52.540;13.416;2023-12-14T00:01:37;99892.07;;;5.76;75.55
84043;BME280;74129;52.540;13.416;2023-12-14T00:04:06;99892.14;;;5.73;75.39
84043;BME280;74129;52.540;13.416;2023-12-14T00:06:32;99896.41;;;5.71;75.15
84043;BME280;74129;52.540;13.416;2023-12-14T00:08:59;99898.87;;;5.71;75.50
84043;BME280;74129;52.540;13.416;2023-12-14T00:11:25;99907.10;;;5.72;75.48
84043;BME280;74129;52.540;13.416;2023-12-14T00:13:52;99908.52;;;5.74;75.48
84043;BME280;74129;52.540;13.416;2023-12-14T00:16:20;99916.50;;;5.72;75.36
84043;BME280;74129;52.540;13.416;2023-12-14T00:18:46;99916.05;;;5.74;75.46
84043;BME280;74129;52.540;13.416;2023-12-14T00:21:13;99923.16;;;5.78;75.48
84043;BME280;74129;52.540;13.416;2023-12-14T00:23:39;99928.76;;;5.81;75.49
84043;BME280;74129;52.540;13.416;2023-12-14T00:26:06;99931.77;;;5.82;75.23
84043;BME280;74129;52.540;13.416;2023-12-14T00:28:32;99937.62;;;5.77;74.95
84043;BME280;74129;52.540;13.416;2023-12-14T00:30:59;99937.13;;;5.71;74.88
84043;BME280;74129;52.540;13.416;2023-12-14T00:33:25;99942.46;;;5.65;75.09
84043;BME280;74129;52.540;13.416;2023-12-14T00:35:51;99950.70;;;5.61;75.12
84043;BME280;74129;52.540;13.416;2023-12-14T00:38:18;99954.57;;;5.54;75.17
84043;BME280;74129;52.540;13.416;2023-12-14T00:40:44;99959.17;;;5.46;75.31
84043;BME280;74129;52.540;13.416;2023-12-14T00:43:11;99959.55;;;5.44;75.54
84043;BME280;74129;52.540;13.416;2023-12-14T00:45:37;99961.22;;;5.42;75.49
84043;BME280;74129;52.540;13.416;2023-12-14T00:48:04;99963.59;;;5.46;75.66
84043;BME280;74129;52.540;13.416;2023-12-14T00:50:30;99966.19;;;5.48;75.67
84043;BME280;74129;52.540;13.416;2023-12-14T00:52:57;99969.67;;;5.46;75.50
84043;BME280;74129;52.540;13.416;2023-12-14T00:55:23;99968.84;;;5.39;75.39
84043;BME280;74129;52.540;13.416;2023-12-14T00:57:50;99973.77;;;5.38;75.43
84043;BME280;74129;52.540;13.416;2023-12-14T01:00:16;99974.69;;;5.35;75.46
84043;BME280;74129;52.540;13.416;2023-12-14T01:02:43;99979.16;;;5.35;75.67
84043;BME280;74129;52.540;13.416;2023-12-14T01:05:09;99986.19;;;5.31;75.46
84043;BME280;74129;52.540;13.416;2023-12-14T01:07:36;99988.64;;;5.29;75.73
84043;BME280;74129;52.540;13.416;2023-12-14T01:10:03;99992.41;;;5.28;75.95
84043;BME280;74129;52.540;13.416;2023-12-14T01:12:30;100001.67;;;5.27;75.59
84043;BME280;74129;52.540;13.416;2023-12-14T01:14:56;99997.54;;;5.29;75.57
84043;BME280;74129;52.540;13.416;2023-12-14T01:17:22;99998.94;;;5.31;75.70
84043;BME280;74129;52.540;13.416;2023-12-14T01:19:49;100009.02;;;5.32;75.60
84043;BME280;74129;52.540;13.416;2023-12-14T01:22:15;100017.27;;;5.31;75.70
84043;BME280;74129;52.540;13.416;2023-12-14T01:24:41;100019.23;;;5.28;75.26
84043;BME280;74129;52.540;13.416;2023-12-14T01:27:08;100024.35;;;5.23;75.21
84043;BME280;74129;52.540;13.416;2023-12-14T01:29:36;100024.98;;;5.15;75.26
84043;BME280;74129;52.540;13.416;2023-12-14T01:32:03;100030.08;;;5.09;75.37
84043;BME280;74129;52.540;13.416;2023-12-14T01:34:29;100030.88;;;5.05;75.12
84043;BME280;74129;52.540;13.416;2023-12-14T01:36:55;100036.02;;;4.99;75.34
84043;BME280;74129;52.540;13.416;2023-12-14T01:39:22;100038.36;;;4.96;75.27
84043;BME280;74129;52.540;13.416;2023-12-14T01:41:48;100038.53;;;4.94;75.51
84043;BME280;74129;52.540;13.416;2023-12-14T01:44:15;100040.30;;;4.92;75.51
84043;BME280;74129;52.540;13.416;2023-12-14T01:46:41;100045.48;;;4.90;75.57
84043;BME280;74129;52.540;13.416;2023-12-14T01:49:08;100047.88;;;4.88;75.32
84043;BME280;74129;52.540;13.416;2023-12-14T01:51:34;100050.77;;;4.84;75.56
84043;BME280;74129;52.540;13.416;2023-12-14T01:54:01;100055.89;;;4.80;75.67
84043;BME280;74129;52.540;13.416;2023-12-14T01:56:28;100058.11;;;4.79;75.65
84043;BME280;74129;52.540;13.416;2023-12-14T01:58:54;100060.80;;;4.78;75.67
84043;BME280;74129;52.540;13.416;2023-12-14T02:01:46;100065.94;;;4.77;75.71
84043;BME280;74129;52.540;13.416;2023-12-14T02:04:14;100071.41;;;4.75;75.59
84043;BME280;74129;52.540;13.416;2023-12-14T02:06:40;100069.71;;;4.72;75.64
84043;BME280;74129;52.540;13.416;2023-12-14T02:09:07;100071.55;;;4.69;75.76
84043;BME280;74129;52.540;13.416;2023-12-14T02:11:33;100078.18;;;4.70;75.86
84043;BME280;74129;52.540;13.416;2023-12-14T02:14:04;100076.80;;;4.72;75.93
84043;BME280;74129;52.540;13.416;2023-12-14T02:16:31;100076.02;;;4.71;75.89
84043;BME280;74129;52.540;13.416;2023-12-14T02:18:58;100075.79;;;4.70;75.86
84043;BME280;74129;52.540;13.416;2023-12-14T02:21:24;100074.50;;;4.69;76.10
84043;BME280;74129;52.540;13.416;2023-12-14T02:23:51;100077.41;;;4.71;76.13
84043;BME280;74129;52.540;13.416;2023-12-14T02:26:17;100079.14;;;4.72;75.80
84043;BME280;74129;52.540;13.416;2023-12-14T02:28:44;100083.40;;;4.72;75.81
84043;BME280;74129;52.540;13.416;2023-12-14T02:31:10;100081.80;;;4.72;75.72
84043;BME280;74129;52.540;13.416;2023-12-14T02:33:37;100080.53;;;4.66;75.80
84043;BME280;74129;52.540;13.416;2023-12-14T02:36:04;100083.66;;;4.65;75.78
84043;BME280;74129;52.540;13.416;2023-12-14T02:38:30;100086.39;;;4.64;75.98
84043;BME280;74129;52.540;13.416;2023-12-14T02:40:57;100090.81;;;4.61;76.00
84043;BME280;74129;52.540;13.416;2023-12-14T02:43:23;100094.46;;;4.58;76.08
84043;BME280;74129;52.540;13.416;2023-12-14T02:45:49;100094.15;;;4.60;76.09
84043;BME280;74129;52.540;13.416;2023-12-14T02:48:16;100096.96;;;4.63;76.09
84043;BME280;74129;52.540;13.416;2023-12-14T02:50:42;100095.96;;;4.65;76.04
84043;BME280;74129;52.540;13.416;2023-12-14T02:53:09;100100.25;;;4.66;75.81
84043;BME280;74129;52.540;13.416;2023-12-14T02:55:35;100095.29;;;4.63;75.92
84043;BME280;74129;52.540;13.416;2023-12-14T02:58:01;100100.15;;;4.62;75.79
84043;BME280;74129;52.540;13.416;2023-12-14T03:00:28;100098.44;;;4.61;76.13
84043;BME280;74129;52.540;13.416;2023-12-14T03:02:54;100103.56;;;4.64;76.05
84043;BME280;74129;52.540;13.416;2023-12-14T03:05:21;100108.96;;;4.67;76.07
84043;BME280;74129;52.540;13.416;2023-12-14T03:07:47;100113.23;;;4.72;76.16
84043;BME280;74129;52.540;13.416;2023-12-14T03:10:14;100117.32;;;4.75;75.99
84043;BME280;74129;52.540;13.416;2023-12-14T03:12:40;100121.36;;;4.77;75.98
84043;BME280;74129;52.540;13.416;2023-12-14T03:15:07;100123.93;;;4.77;75.96
84043;BME280;74129;52.540;13.416;2023-12-14T03:17:33;100131.31;;;4.78;75.85
84043;BME280;74129;52.540;13.416;2023-12-14T03:19:59;100136.56;;;4.75;75.78
84043;BME280;74129;52.540;13.416;2023-12-14T03:22:26;100141.43;;;4.72;75.77
84043;BME280;74129;52.540;13.416;2023-12-14T03:24:52;100146.04;;;4.71;75.77
84043;BME280;74129;52.540;13.416;2023-12-14T03:27:19;100147.26;;;4.66;75.80
84043;BME280;74129;52.540;13.416;2023-12-14T03:29:46;100146.02;;;4.64;76.10
84043;BME280;74129;52.540;13.416;2023-12-14T03:32:13;100148.20;;;4.66;75.92
84043;BME280;74129;52.540;13.416;2023-12-14T03:34:39;100146.91;;;4.67;75.70
84043;BME280;74129;52.540;13.416;2023-12-14T03:37:07;100152.84;;;4.68;75.72
84043;BME280;74129;52.540;13.416;2023-12-14T03:39:33;100151.30;;;4.67;75.66
84043;BME280;74129;52.540;13.416;2023-12-14T03:42:00;100154.04;;;4.65;75.57
84043;BME280;74129;52.540;13.416;2023-12-14T03:44:26;100161.64;;;4.63;75.94
84043;BME280;74129;52.540;13.416;2023-12-14T03:46:53;100163.13;;;4.62;75.96
84043;BME280;74129;52.540;13.416;2023-12-14T03:49:20;100168.07;;;4.64;75.71
84043;BME280;74129;52.540;13.416;2023-12-14T03:51:46;100168.06;;;4.64;75.89
84043;BME280;74129;52.540;13.416;2023-12-14T03:54:13;100167.73;;;4.65;75.72
84043;BME280;74129;52.540;13.416;2023-12-14T03:56:40;100175.80;;;4.64;75.79
84043;BME280;74129;52.540;13.416;2023-12-14T03:59:06;100183.30;;;4.64;75.75
84043;BME280;74129;52.540;13.416;2023-12-14T04:01:33;100189.81;;;4.64;75.74
84043;BME280;74129;52.540;13.416;2023-12-14T04:04:00;100194.23;;;4.66;75.73
84043;BME280;74129;52.540;13.416;2023-12-14T04:06:26;100198.27;;;4.64;75.76
84043;BME280;74129;52.540;13.416;2023-12-14T04:08:52;100201.23;;;4.63;75.90
84043;BME280;74129;52.540;13.416;2023-12-14T04:11:19;100200.77;;;4.61;75.71
84043;BME280;74129;52.540;13.416;2023-12-14T04:13:45;100201.48;;;4.56;75.77
84043;BME280;74129;52.540;13.416;2023-12-14T04:16:11;100205.88;;;4.58;76.00
84043;BME280;74129;52.540;13.416;2023-12-14T04:18:38;100208.64;;;4.60;76.01
84043;BME280;74129;52.540;13.416;2023-12-14T04:21:06;100208.30;;;4.62;76.01
84043;BME280;74129;52.540;13.416;2023-12-14T04:23:32;100209.66;;;4.67;75.67
84043;BME280;74129;52.540;13.416;2023-12-14T04:25:58;100212.14;;;4.68;75.70
84043;BME280;74129;52.540;13.416;2023-12-14T04:28:25;100214.35;;;4.69;75.74
84043;BME280;74129;52.540;13.416;2023-12-14T04:30:51;100221.16;;;4.71;75.82
84043;BME280;74129;52.540;13.416;2023-12-14T04:33:18;100229.16;;;4.71;75.53
84043;BME280;74129;52.540;13.416;2023-12-14T04:35:44;100229.14;;;4.70;75.50
84043;BME280;74129;52.540;13.416;2023-12-14T04:38:10;100230.71;;;4.69;75.65
84043;BME280;74129;52.540;13.416;2023-12-14T04:40:37;100229.89;;;4.68;75.74
84043;BME280;74129;52.540;13.416;2023-12-14T04:43:04;100236.23;;;4.70;75.91
84043;BME280;74129;52.540;13.416;2023-12-14T04:45:30;100237.71;;;4.72;75.62
84043;BME280;74129;52.540;13.416;2023-12-14T04:47:56;100234.02;;;4.73;75.80
84043;BME280;74129;52.540;13.416;2023-12-14T04:50:23;100234.52;;;4.72;75.75
84043;BME280;74129;52.540;13.416;2023-12-14T04:52:49;100240.00;;;4.72;75.61
84043;BME280;74129;52.540;13.416;2023-12-14T04:55:16;100239.80;;;4.69;75.53
84043;BME280;74129;52.540;13.416;2023-12-14T04:57:42;100242.03;;;4.67;75.85
84043;BME280;74129;52.540;13.416;2023-12-14T05:00:10;100247.52;;;4.65;75.85
84043;BME280;74129;52.540;13.416;2023-12-14T05:02:36;100255.02;;;4.64;75.85
84043;BME280;74129;52.540;13.416;2023-12-14T05:05:03;100258.48;;;4.64;75.88
84043;BME280;74129;52.540;13.416;2023-12-14T05:07:29;100262.56;;;4.65;75.93
84043;BME280;74129;52.540;13.416;2023-12-14T05:09:56;100263.83;;;4.65;75.85
84043;BME280;74129;52.540;13.416;2023-12-14T05:12:23;100268.44;;;4.61;76.02
84043;BME280;74129;52.540;13.416;2023-12-14T05:14:52;100276.87;;;4.60;75.93
84043;BME280;74129;52.540;13.416;2023-12-14T05:17:18;100277.88;;;4.58;76.17
84043;BME280;74129;52.540;13.416;2023-12-14T05:19:45;100282.66;;;4.59;75.91
84043;BME280;74129;52.540;13.416;2023-12-14T05:22:12;100287.88;;;4.61;76.00
84043;BME280;74129;52.540;13.416;2023-12-14T05:24:39;100293.79;;;4.64;76.00
84043;BME280;74129;52.540;13.416;2023-12-14T05:27:05;100298.06;;;4.64;76.02
84043;BME280;74129;52.540;13.416;2023-12-14T05:29:31;100306.98;;;4.65;76.18
84043;BME280;74129;52.540;13.416;2023-12-14T05:31:59;100312.91;;;4.63;76.01
84043;BME280;74129;52.540;13.416;2023-12-14T05:34:26;100316.45;;;4.62;75.80
84043;BME280;74129;52.540;13.416;2023-12-14T05:36:53;100321.58;;;4.60;76.08
84043;BME280;74129;52.540;13.416;2023-12-14T05:39:19;100326.10;;;4.62;76.17
84043;BME280;74129;52.540;13.416;2023-12-14T05:41:46;100330.42;;;4.61;76.06
84043;BME280;74129;52.540;13.416;2023-12-14T05:44:12;100333.07;;;4.59;76.11
84043;BME280;74129;52.540;13.416;2023-12-14T05:46:39;100339.15;;;4.58;76.17
84043;BME280;74129;52.540;13.416;2023-12-14T05:49:05;100342.19;;;4.62;76.07
84043;BME280;74129;52.540;13.416;2023-12-14T05:51:33;100343.73;;;4.62;75.86
84043;BME280;74129;52.540;13.416;2023-12-14T05:53:59;100345.36;;;4.63;76.19
84043;BME280;74129;52.540;13.416;2023-12-14T05:56:26;100351.76;;;4.67;76.02
84043;BME280;74129;52.540;13.416;2023-12-14T05:58:52;100356.27;;;4.66;76.17
84043;BME280;74129;52.540;13.416;2023-12-14T06:01:19;100362.18;;;4.66;76.16
84043;BME280;74129;52.540;13.416;2023-12-14T06:03:46;100363.86;;;4.65;76.14
84043;BME280;74129;52.540;13.416;2023-12-14T06:06:13;100365.91;;;4.70;76.35
84043;BME280;74129;52.540;13.416;2023-12-14T06:08:42;100367.38;;;4.73;75.97
84043;BME280;74129;52.540;13.416;2023-12-14T06:11:09;100369.14;;;4.73;76.11
84043;BME280;74129;52.540;13.416;2023-12-14T06:13:35;100371.54;;;4.76;75.99
84043;BME280;74129;52.540;13.416;2023-12-14T06:16:02;100371.55;;;4.83;76.25
84043;BME280;74129;52.540;13.416;2023-12-14T06:18:29;100377.85;;;4.87;76.21
84043;BME280;74129;52.540;13.416;2023-12-14T06:20:56;100381.25;;;4.88;75.92
84043;BME280;74129;52.540;13.416;2023-12-14T06:23:22;100390.22;;;4.89;75.85
84043;BME280;74129;52.540;13.416;2023-12-14T06:25:49;100395.60;;;4.90;76.11
84043;BME280;74129;52.540;13.416;2023-12-14T06:28:15;100393.75;;;4.92;75.81
84043;BME280;74129;52.540;13.416;2023-12-14T06:30:42;100394.44;;;4.92;75.56
84043;BME280;74129;52.540;13.416;2023-12-14T06:33:08;100392.34;;;4.93;75.69
84043;BME280;74129;52.540;13.416;2023-12-14T06:35:34;100394.47;;;4.93;75.71
84043;BME280;74129;52.540;13.416;2023-12-14T06:38:01;100394.86;;;4.96;75.80
84043;BME280;74129;52.540;13.416;2023-12-14T06:40:27;100397.04;;;4.94;75.39
84043;BME280;74129;52.540;13.416;2023-12-14T06:42:53;100399.98;;;4.94;75.37
84043;BME280;74129;52.540;13.416;2023-12-14T06:45:20;100407.17;;;4.94;75.56
84043;BME280;74129;52.540;13.416;2023-12-14T06:47:46;100406.96;;;4.94;75.32
84043;BME280;74129;52.540;13.416;2023-12-14T06:50:13;100414.25;;;4.92;75.45
84043;BME280;74129;52.540;13.416;2023-12-14T06:52:40;100424.45;;;4.93;75.44
84043;BME280;74129;52.540;13.416;2023-12-14T06:55:07;100431.96;;;4.92;75.20
84043;BME280;74129;52.540;13.416;2023-12-14T06:57:33;100436.59;;;4.93;75.22
84043;BME280;74129;52.540;13.416;2023-12-14T06:59:59;100438.09;;;4.94;75.11
84043;BME280;74129;52.540;13.416;2023-12-14T07:02:26;100445.41;;;4.95;75.34
84043;BME280;74129;52.540;13.416;2023-12-14T07:04:52;100448.77;;;4.96;75.37
84043;BME280;74129;52.540;13.416;2023-12-14T07:07:19;100451.62;;;4.97;75.34
84043;BME280;74129;52.540;13.416;2023-12-14T07:09:45;100454.24;;;4.98;75.11
84043;BME280;74129;52.540;13.416;2023-12-14T07:12:12;100462.30;;;5.00;75.37
84043;BME280;74129;52.540;13.416;2023-12-14T07:14:40;100466.87;;;5.03;75.15
84043;BME280;74129;52.540;13.416;2023-12-14T07:17:06;100468.44;;;5.06;75.13
84043;BME280;74129;52.540;13.416;2023-12-14T07:19:32;100475.39;;;5.08;75.10
84043;BME280;74129;52.540;13.416;2023-12-14T07:21:59;100480.16;;;5.06;74.86
84043;BME280;74129;52.540;13.416;2023-12-14T07:24:25;100488.21;;;5.05;75.17
84043;BME280;74129;52.540;13.416;2023-12-14T07:26:52;100494.38;;;5.03;74.80
84043;BME280;74129;52.540;13.416;2023-12-14T07:29:18;100499.55;;;4.99;74.91
84043;BME280;74129;52.540;13.416;2023-12-14T07:31:45;100506.00;;;4.97;75.04
84043;BME280;74129;52.540;13.416;2023-12-14T07:34:11;100511.39;;;5.00;74.90
84043;BME280;74129;52.540;13.416;2023-12-14T07:36:38;100518.10;;;4.97;74.62
84043;BME280;74129;52.540;13.416;2023-12-14T07:39:05;100520.39;;;4.94;74.74
84043;BME280;74129;52.540;13.416;2023-12-14T07:41:32;100528.36;;;4.91;74.84
84043;BME280;74129;52.540;13.416;2023-12-14T07:43:58;100532.95;;;4.92;74.81
84043;BME280;74129;52.540;13.416;2023-12-14T07:46:25;100534.92;;;4.92;74.98
84043;BME280;74129;52.540;13.416;2023-12-14T07:48:51;100533.36;;;4.93;74.79
84043;BME280;74129;52.540;13.416;2023-12-14T07:51:17;100531.70;;;4.94;74.98
84043;BME280;74129;52.540;13.416;2023-12-14T07:53:44;100536.33;;;4.95;75.03
84043;BME280;74129;52.540;13.416;2023-12-14T07:56:12;100538.73;;;4.92;74.98
84043;BME280;74129;52.540;13.416;2023-12-14T07:58:39;100545.29;;;4.92;75.21
84043;BME280;74129;52.540;13.416;2023-12-14T08:01:05;100552.57;;;4.95;75.21
84043;BME280;74129;52.540;13.416;2023-12-14T08:03:32;100556.92;;;4.98;74.94
84043;BME280;74129;52.540;13.416;2023-12-14T08:05:58;100557.52;;;5.01;74.89
84043;BME280;74129;52.540;13.416;2023-12-14T08:08:25;100558.67;;;5.05;74.90
84043;BME280;74129;52.540;13.416;2023-12-14T08:10:52;100563.72;;;5.09;75.04
84043;BME280;74129;52.540;13.416;2023-12-14T08:13:18;100565.25;;;5.12;74.74
84043;BME280;74129;52.540;13.416;2023-12-14T08:15:45;100566.55;;;5.13;74.64
84043;BME280;74129;52.540;13.416;2023-12-14T08:18:11;100570.75;;;5.12;74.77
84043;BME280;74129;52.540;13.416;2023-12-14T08:20:38;100573.35;;;5.10;74.53
84043;BME280;74129;52.540;13.416;2023-12-14T08:23:04;100579.74;;;5.06;74.43
84043;BME280;74129;52.540;13.416;2023-12-14T08:25:31;100582.99;;;5.05;74.61
84043;BME280;74129;52.540;13.416;2023-12-14T08:27:57;100589.80;;;5.04;74.63
84043;BME280;74129;52.540;13.416;2023-12-14T08:30:23;100592.00;;;5.07;74.73
84043;BME280;74129;52.540;13.416;2023-12-14T08:32:50;100600.73;;;5.08;74.34
84043;BME280;74129;52.540;13.416;2023-12-14T08:35:17;100605.23;;;5.08;74.55
84043;BME280;74129;52.540;13.416;2023-12-14T08:37:43;100609.98;;;5.09;74.15
84043;BME280;74129;52.540;13.416;2023-12-14T08:40:10;100611.06;;;5.07;74.41
84043;BME280;74129;52.540;13.416;2023-12-14T08:42:37;100617.13;;;5.08;75.02
84043;BME280;74129;52.540;13.416;2023-12-14T08:45:04;100619.14;;;5.13;74.65
84043;BME280;74129;52.540;13.416;2023-12-14T08:47:30;100625.40;;;5.20;74.72
84043;BME280;74129;52.540;13.416;2023-12-14T08:49:57;100628.15;;;5.25;74.51
84043;BME280;74129;52.540;13.416;2023-12-14T08:52:23;100631.04;;;5.28;74.38
84043;BME280;74129;52.540;13.416;2023-12-14T08:54:50;100643.31;;;5.29;74.40
84043;BME280;74129;52.540;13.416;2023-12-14T08:57:16;100645.44;;;5.32;74.32
84043;BME280;74129;52.540;13.416;2023-12-14T08:59:43;100644.66;;;5.31;74.09
84043;BME280;74129;52.540;13.416;2023-12-14T09:05:18;100647.25;;;5.32;74.42
84043;BME280;74129;52.540;13.416;2023-12-14T09:07:50;100652.52;;;5.39;74.23
84043;BME280;74129;52.540;13.416;2023-12-14T09:10:29;100662.02;;;5.37;73.86
84043;BME280;74129;52.540;13.416;2023-12-14T09:13:18;100657.80;;;5.31;74.04
84043;BME280;74129;52.540;13.416;2023-12-14T09:16:01;100661.60;;;5.32;73.84
84043;BME280;74129;52.540;13.416;2023-12-14T09:18:27;100669.94;;;5.31;73.87
84043;BME280;74129;52.540;13.416;2023-12-14T09:20:57;100684.95;;;5.33;73.75
84043;BME280;74129;52.540;13.416;2023-12-14T09:23:23;100689.41;;;5.33;73.94
84043;BME280;74129;52.540;13.416;2023-12-14T09:25:50;100692.27;;;5.35;74.01
84043;BME280;74129;52.540;13.416;2023-12-14T09:28:16;100691.43;;;5.36;73.93
84043;BME280;74129;52.540;13.416;2023-12-14T09:30:43;100695.52;;;5.33;73.68
84043;BME280;74129;52.540;13.416;2023-12-14T09:33:11;100699.29;;;5.36;74.00
84043;BME280;74129;52.540;13.416;2023-12-14T09:35:37;100701.80;;;5.38;73.99
84043;BME280;74129;52.540;13.416;2023-12-14T09:38:06;100698.30;;;5.36;73.73
84043;BME280;74129;52.540;13.416;2023-12-14T09:40:33;100704.95;;;5.39;73.75
84043;BME280;74129;52.540;13.416;2023-12-14T09:43:05;100708.21;;;5.37;73.75
84043;BME280;74129;52.540;13.416;2023-12-14T09:45:32;100713.33;;;5.39;74.06
84043;BME280;74129;52.540;13.416;2023-12-14T09:48:15;100716.23;;;5.41;73.81
84043;BME280;74129;52.540;13.416;2023-12-14T09:50:42;100718.87;;;5.40;73.61
84043;BME280;74129;52.540;13.416;2023-12-14T09:53:45;100727.14;;;5.35;73.65
84043;BME280;74129;52.540;13.416;2023-12-14T09:56:14;100726.79;;;5.34;73.63
84043;BME280;74129;52.540;13.416;2023-12-14T09:58:41;100728.66;;;5.35;73.48
84043;BME280;74129;52.540;13.416;2023-12-14T10:01:23;100730.49;;;5.38;73.92
84043;BME280;74129;52.540;13.416;2023-12-14T10:04:09;100726.23;;;5.38;73.63
84043;BME280;74129;52.540;13.416;2023-12-14T10:06:38;100728.27;;;5.40;73.90
84043;BME280;74129;52.540;13.416;2023-12-14T10:09:05;100724.64;;;5.45;73.78
84043;BME280;74129;52.540;13.416;2023-12-14T10:11:36;100728.89;;;5.49;74.01
84043;BME280;74129;52.540;13.416;2023-12-14T10:14:03;100736.08;;;5.51;73.44
84043;BME280;74129;52.540;13.416;2023-12-14T10:16:37;100743.00;;;5.50;73.76
84043;BME280;74129;52.540;13.416;2023-12-14T10:19:03;100743.91;;;5.54;73.78
84043;BME280;74129;52.540;13.416;2023-12-14T10:21:30;100748.70;;;5.56;73.84
84043;BME280;74129;52.540;13.416;2023-12-14T10:23:57;100748.39;;;5.59;73.80
84043;BME280;74129;52.540;13.416;2023-12-14T10:26:25;100751.35;;;5.64;73.48
84043;BME280;74129;52.540;13.416;2023-12-14T10:28:53;100752.66;;;5.63;73.42
84043;BME280;74129;52.540;13.416;2023-12-14T10:31:20;100751.73;;;5.70;73.80
84043;BME280;74129;52.540;13.416;2023-12-14T10:33:48;100755.02;;;5.74;73.37
84043;BME280;74129;52.540;13.416;2023-12-14T10:36:29;100757.80;;;5.76;73.39
84043;BME280;74129;52.540;13.416;2023-12-14T10:39:27;100759.70;;;5.79;73.24
84043;BME280;74129;52.540;13.416;2023-12-14T10:42:07;100766.59;;;5.72;72.94
84043;BME280;74129;52.540;13.416;2023-12-14T11:10:23;100793.98;;;6.12;72.27
84043;BME280;74129;52.540;13.416;2023-12-14T11:13:04;100793.73;;;6.12;71.94
84043;BME280;74129;52.540;13.416;2023-12-14T11:15:37;100794.11;;;6.15;72.12
84043;BME280;74129;52.540;13.416;2023-12-14T11:18:19;100793.71;;;6.19;72.09
84043;BME280;74129;52.540;13.416;2023-12-14T11:21:02;100793.45;;;6.20;71.72
84043;BME280;74129;52.540;13.416;2023-12-14T11:23:31;100797.64;;;6.19;71.93
84043;BME280;74129;52.540;13.416;2023-12-14T11:26:03;100801.10;;;6.15;71.34
84043;BME280;74129;52.540;13.416;2023-12-14T11:28:32;100801.97;;;6.10;71.51
84043;BME280;74129;52.540;13.416;2023-12-14T11:31:00;100802.69;;;6.12;71.88
84043;BME280;74129;52.540;13.416;2023-12-14T11:33:27;100804.53;;;6.17;71.61
84043;BME280;74129;52.540;13.416;2023-12-14T11:35:55;100810.77;;;6.17;71.54
84043;BME280;74129;52.540;13.416;2023-12-14T11:38:26;100816.91;;;6.15;71.45
84043;BME280;74129;52.540;13.416;2023-12-14T11:40:53;100822.68;;;6.15;71.67
84043;BME280;74129;52.540;13.416;2023-12-14T11:43:20;100828.46;;;6.15;71.88
84043;BME280;74129;52.540;13.416;2023-12-14T11:45:47;100833.42;;;6.16;71.61
84043;BME280;74129;52.540;13.416;2023-12-14T11:48:15;100836.28;;;6.13;71.54
84043;BME280;74129;52.540;13.416;2023-12-14T11:50:42;100838.04;;;6.09;71.63
84043;BME280;74129;52.540;13.416;2023-12-14T11:56:56;100848.51;;;6.02;71.39
84043;BME280;74129;52.540;13.416;2023-12-14T11:59:23;100851.95;;;6.03;71.60
84043;BME280;74129;52.540;13.416;2023-12-14T12:01:59;100857.44;;;6.04;71.19
84043;BME280;74129;52.540;13.416;2023-12-14T12:04:27;100861.11;;;6.02;71.45
84043;BME280;74129;52.540;13.416;2023-12-14T12:07:05;100862.45;;;6.00;70.85
84043;BME280;74129;52.540;13.416;2023-12-14T12:09:40;100861.48;;;5.94;71.11
84043;BME280;74129;52.540;13.416;2023-12-14T12:12:09;100863.98;;;5.96;71.18
84043;BME280;74129;52.540;13.416;2023-12-14T12:14:37;100867.08;;;5.97;71.11
84043;BME280;74129;52.540;13.416;2023-12-14T12:17:04;100872.30;;;5.96;71.18
84043;BME280;74129;52.540;13.416;2023-12-14T12:19:36;100877.13;;;5.94;71.04
84043;BME280;74129;52.540;13.416;2023-12-14T12:22:03;100880.67;;;5.90;71.28
84043;BME280;74129;52.540;13.416;2023-12-14T12:24:30;100878.64;;;5.90;71.24
84043;BME280;74129;52.540;13.416;2023-12-14T12:26:59;100878.94;;;5.88;70.91
84043;BME280;74129;52.540;13.416;2023-12-14T12:29:26;100878.64;;;5.85;70.74
84043;BME280;74129;52.540;13.416;2023-12-14T12:31:52;100879.41;;;5.80;70.81
84043;BME280;74129;52.540;13.416;2023-12-14T12:34:19;100878.64;;;5.76;70.96
84043;BME280;74129;52.540;13.416;2023-12-14T12:36:46;100885.44;;;5.74;71.00
84043;BME280;74129;52.540;13.416;2023-12-14T12:39:13;100886.41;;;5.75;71.24
84043;BME280;74129;52.540;13.416;2023-12-14T12:41:44;100894.40;;;5.79;71.58
84043;BME280;74129;52.540;13.416;2023-12-14T12:44:23;100891.60;;;5.80;71.20
84043;BME280;74129;52.540;13.416;2023-12-14T12:47:21;100897.74;;;5.83;71.28
84043;BME280;74129;52.540;13.416;2023-12-14T12:49:48;100902.89;;;5.79;71.03
84043;BME280;74129;52.540;13.416;2023-12-14T12:52:17;100905.03;;;5.78;71.18
84043;BME280;74129;52.540;13.416;2023-12-14T12:54:44;100907.64;;;5.83;71.18
84043;BME280;74129;52.540;13.416;2023-12-14T12:57:13;100908.38;;;5.84;71.18
84043;BME280;74129;52.540;13.416;2023-12-14T12:59:39;100915.64;;;5.79;70.77
84043;BME280;74129;52.540;13.416;2023-12-14T13:02:06;100916.69;;;5.74;71.25
84043;BME280;74129;52.540;13.416;2023-12-14T13:04:32;100920.83;;;5.74;71.22
84043;BME280;74129;52.540;13.416;2023-12-14T13:06:59;100924.33;;;5.74;71.23
84043;BME280;74129;52.540;13.416;2023-12-14T13:09:28;100928.16;;;5.70;71.02
84043;BME280;74129;52.540;13.416;2023-12-14T13:11:55;100933.01;;;5.64;71.20
84043;BME280;74129;52.540;13.416;2023-12-14T13:14:23;100941.78;;;5.58;71.06
84043;BME280;74129;52.540;13.416;2023-12-14T13:16:53;100945.33;;;5.53;71.45
84043;BME280;74129;52.540;13.416;2023-12-14T13:19:21;100947.03;;;5.50;71.30
84043;BME280;74129;52.540;13.416;2023-12-14T13:21:49;100951.27;;;5.49;71.48
84043;BME280;74129;52.540;13.416;2023-12-14T13:24:16;100950.23;;;5.47;71.71
84043;BME280;74129;52.540;13.416;2023-12-14T13:26:42;100954.91;;;5.48;71.58